sensor_id;sensor_type;location;lat;lon;timestamp;temperature;humidity
20670;DHT22;10494;50.868;4.180;2023-04-21T00:02:20;7.40;99.90
20670;DHT22;10494;50.868;4.180;2023-04-21T00:04:47;7.40;99.90
20670;DHT22;10494;50.868;4.180;2023-04-21T00:07:14;7.50;99.90
20670;DHT22;10494;50.868;4.180;2023-04-21T00:09:40;7.60;99.90
20670;DHT22;10494;50.868;4.180;2023-04-21T00:12:06;7.80;99.90
20670;DHT22;10494;50.868;4.180;2023-04-21T00:14:32;8.00;99.90
20670;DHT22;10494;50.868;4.180;2023-04-21T00:16:57;8.20;99.90
20670;DHT22;10494;50.868;4.180;2023-04-21T00:19:24;8.10;99.90
20670;DHT22;10494;50.868;4.180;2023-04-21T00:21:50;8.20;99.90
20670;DHT22;10494;50.868;4.180;2023-04-21T00:24:16;8.20;99.90
20670;DHT22;10494;50.868;4.180;2023-04-21T00:26:41;8.30;99.90
20670;DHT22;10494;50.868;4.180;2023-04-21T00:29:07;8.20;99.90
20670;DHT22;10494;50.868;4.180;2023-04-21T00:31:33;8.20;99.90
20670;DHT22;10494;50.868;4.180;2023-04-21T00:33:58;8.30;99.90
20670;DHT22;10494;50.868;4.180;2023-04-21T00:36:24;8.30;99.90
20670;DHT22;10494;50.868;4.180;2023-04-21T00:38:52;8.40;99.90
20670;DHT22;10494;50.868;4.180;2023-04-21T00:41:18;8.30;99.90
20670;DHT22;10494;50.868;4.180;2023-04-21T00:44:10;8.30;99.90
20670;DHT22;10494;50.868;4.180;2023-04-21T00:46:36;8.30;99.90
20670;DHT22;10494;50.868;4.180;2023-04-21T00:49:05;8.40;99.90
20670;DHT22;10494;50.868;4.180;2023-04-21T00:51:32;8.40;99.90
20670;DHT22;10494;50.868;4.180;2023-04-21T00:53:59;8.40;99.90
20670;DHT22;10494;50.868;4.180;2023-04-21T00:56:27;8.50;99.90
20670;DHT22;10494;50.868;4.180;2023-04-21T00:58:57;8.60;99.90
20670;DHT22;10494;50.868;4.180;2023-04-21T01:01:23;8.50;99.90
20670;DHT22;10494;50.868;4.180;2023-04-21T01:03:49;8.50;99.90
20670;DHT22;10494;50.868;4.180;2023-04-21T01:06:14;8.50;99.90
20670;DHT22;10494;50.868;4.180;2023-04-21T01:08:41;8.40;99.90
20670;DHT22;10494;50.868;4.180;2023-04-21T01:11:11;8.50;99.90
20670;DHT22;10494;50.868;4.180;2023-04-21T01:13:37;8.40;99.90
20670;DHT22;10494;50.868;4.180;2023-04-21T01:16:04;8.40;99.90
20670;DHT22;10494;50.868;4.180;2023-04-21T01:18:29;8.20;99.90
20670;DHT22;10494;50.868;4.180;2023-04-21T01:20:55;8.20;99.90
20670;DHT22;10494;50.868;4.180;2023-04-21T01:23:23;8.10;99.90
20670;DHT22;10494;50.868;4.180;2023-04-21T01:25:50;8.00;99.90
20670;DHT22;10494;50.868;4.180;2023-04-21T01:28:24;7.90;99.90
20670;DHT22;10494;50.868;4.180;2023-04-21T01:30:50;7.90;99.90
20670;DHT22;10494;50.868;4.180;2023-04-21T01:33:17;7.90;99.90
20670;DHT22;10494;50.868;4.180;2023-04-21T01:35:43;7.90;99.90
20670;DHT22;10494;50.868;4.180;2023-04-21T01:38:09;7.90;99.90
20670;DHT22;10494;50.868;4.180;2023-04-21T01:40:35;7.90;99.90
20670;DHT22;10494;50.868;4.180;2023-04-21T01:43:00;7.90;99.90
20670;DHT22;10494;50.868;4.180;2023-04-21T01:45:28;7.80;99.90
20670;DHT22;10494;50.868;4.180;2023-04-21T01:47:54;7.80;99.90
20670;DHT22;10494;50.868;4.180;2023-04-21T01:50:19;7.70;99.90
20670;DHT22;10494;50.868;4.180;2023-04-21T01:52:45;7.60;99.90
20670;DHT22;10494;50.868;4.180;2023-04-21T01:55:11;7.60;99.90
20670;DHT22;10494;50.868;4.180;2023-04-21T01:57:36;7.60;99.90
20670;DHT22;10494;50.868;4.180;2023-04-21T02:00:03;7.70;99.90
20670;DHT22;10494;50.868;4.180;2023-04-21T02:02:29;7.50;99.90
20670;DHT22;10494;50.868;4.180;2023-04-21T02:04:55;7.20;99.90
20670;DHT22;10494;50.868;4.180;2023-04-21T02:07:20;7.20;99.90
20670;DHT22;10494;50.868;4.180;2023-04-21T02:09:46;7.00;99.90
20670;DHT22;10494;50.868;4.180;2023-04-21T02:12:12;7.00;99.90
20670;DHT22;10494;50.868;4.180;2023-04-21T02:14:37;7.10;99.90
20670;DHT22;10494;50.868;4.180;2023-04-21T02:17:03;7.00;99.90
20670;DHT22;10494;50.868;4.180;2023-04-21T02:19:29;7.10;99.90
20670;DHT22;10494;50.868;4.180;2023-04-21T02:21:55;7.00;99.90
20670;DHT22;10494;50.868;4.180;2023-04-21T02:24:21;6.90;99.90
20670;DHT22;10494;50.868;4.180;2023-04-21T02:26:46;6.90;99.90
20670;DHT22;10494;50.868;4.180;2023-04-21T02:29:12;7.20;99.90
20670;DHT22;10494;50.868;4.180;2023-04-21T02:31:38;7.30;99.90
20670;DHT22;10494;50.868;4.180;2023-04-21T02:34:04;7.50;99.90
20670;DHT22;10494;50.868;4.180;2023-04-21T02:36:30;7.50;99.90
20670;DHT22;10494;50.868;4.180;2023-04-21T02:38:56;7.60;99.90
20670;DHT22;10494;50.868;4.180;2023-04-21T02:41:22;7.60;99.90
20670;DHT22;10494;50.868;4.180;2023-04-21T02:43:48;7.70;99.90
20670;DHT22;10494;50.868;4.180;2023-04-21T02:46:13;7.60;99.90
20670;DHT22;10494;50.868;4.180;2023-04-21T02:48:39;7.60;99.90
20670;DHT22;10494;50.868;4.180;2023-04-21T02:51:09;7.70;99.90
20670;DHT22;10494;50.868;4.180;2023-04-21T02:53:35;7.90;99.90
20670;DHT22;10494;50.868;4.180;2023-04-21T02:56:02;7.90;99.90
20670;DHT22;10494;50.868;4.180;2023-04-21T02:58:29;7.90;99.90
20670;DHT22;10494;50.868;4.180;2023-04-21T03:00:56;7.90;99.90
20670;DHT22;10494;50.868;4.180;2023-04-21T03:03:22;7.90;99.90
20670;DHT22;10494;50.868;4.180;2023-04-21T03:05:47;7.90;99.90
20670;DHT22;10494;50.868;4.180;2023-04-21T03:08:13;8.00;99.90
20670;DHT22;10494;50.868;4.180;2023-04-21T03:10:39;8.10;99.90
20670;DHT22;10494;50.868;4.180;2023-04-21T03:13:04;7.80;99.90
20670;DHT22;10494;50.868;4.180;2023-04-21T03:15:30;7.80;99.90
20670;DHT22;10494;50.868;4.180;2023-04-21T03:17:56;8.00;99.90
20670;DHT22;10494;50.868;4.180;2023-04-21T03:20:21;7.90;99.90
20670;DHT22;10494;50.868;4.180;2023-04-21T03:22:47;7.90;99.90
20670;DHT22;10494;50.868;4.180;2023-04-21T03:25:12;7.60;99.90
20670;DHT22;10494;50.868;4.180;2023-04-21T03:27:38;7.60;99.90
20670;DHT22;10494;50.868;4.180;2023-04-21T03:30:04;7.80;99.90
20670;DHT22;10494;50.868;4.180;2023-04-21T03:32:31;7.80;99.90
20670;DHT22;10494;50.868;4.180;2023-04-21T03:34:57;7.90;99.90
20670;DHT22;10494;50.868;4.180;2023-04-21T03:37:22;7.90;99.90
20670;DHT22;10494;50.868;4.180;2023-04-21T03:39:48;7.90;99.90
20670;DHT22;10494;50.868;4.180;2023-04-21T03:42:13;8.10;99.90
20670;DHT22;10494;50.868;4.180;2023-04-21T03:44:39;8.00;99.90
20670;DHT22;10494;50.868;4.180;2023-04-21T03:47:05;8.10;99.90
20670;DHT22;10494;50.868;4.180;2023-04-21T03:49:33;8.10;99.90
20670;DHT22;10494;50.868;4.180;2023-04-21T03:51:59;8.30;99.90
20670;DHT22;10494;50.868;4.180;2023-04-21T03:54:24;8.50;99.90
20670;DHT22;10494;50.868;4.180;2023-04-21T03:56:50;8.50;99.90
20670;DHT22;10494;50.868;4.180;2023-04-21T03:59:15;8.40;99.90
20670;DHT22;10494;50.868;4.180;2023-04-21T04:01:41;8.30;99.90
20670;DHT22;10494;50.868;4.180;2023-04-21T04:04:07;8.50;99.90
20670;DHT22;10494;50.868;4.180;2023-04-21T04:06:33;8.20;99.90
20670;DHT22;10494;50.868;4.180;2023-04-21T04:09:00;8.10;99.90
20670;DHT22;10494;50.868;4.180;2023-04-21T04:11:29;8.30;99.90
20670;DHT22;10494;50.868;4.180;2023-04-21T04:13:55;8.50;99.90
20670;DHT22;10494;50.868;4.180;2023-04-21T04:16:20;8.20;99.90
20670;DHT22;10494;50.868;4.180;2023-04-21T04:18:46;8.00;99.90
20670;DHT22;10494;50.868;4.180;2023-04-21T04:21:11;8.00;99.90
20670;DHT22;10494;50.868;4.180;2023-04-21T04:23:37;7.80;99.90
20670;DHT22;10494;50.868;4.180;2023-04-21T04:26:03;7.80;99.90
20670;DHT22;10494;50.868;4.180;2023-04-21T04:28:30;8.00;99.90
20670;DHT22;10494;50.868;4.180;2023-04-21T04:30:56;8.30;99.90
20670;DHT22;10494;50.868;4.180;2023-04-21T04:33:21;8.30;99.90
20670;DHT22;10494;50.868;4.180;2023-04-21T04:35:47;8.50;99.90
20670;DHT22;10494;50.868;4.180;2023-04-21T04:38:13;8.40;99.90
20670;DHT22;10494;50.868;4.180;2023-04-21T04:40:42;8.30;99.90
20670;DHT22;10494;50.868;4.180;2023-04-21T04:43:07;8.40;99.90
20670;DHT22;10494;50.868;4.180;2023-04-21T04:45:35;8.50;99.90
20670;DHT22;10494;50.868;4.180;2023-04-21T04:48:02;8.60;99.90
20670;DHT22;10494;50.868;4.180;2023-04-21T04:50:28;8.60;99.90
20670;DHT22;10494;50.868;4.180;2023-04-21T04:52:54;8.70;99.90
20670;DHT22;10494;50.868;4.180;2023-04-21T04:55:20;8.80;99.90
20670;DHT22;10494;50.868;4.180;2023-04-21T04:57:46;8.70;99.90
20670;DHT22;10494;50.868;4.180;2023-04-21T05:00:12;8.70;99.90
20670;DHT22;10494;50.868;4.180;2023-04-21T05:02:39;8.60;99.90
20670;DHT22;10494;50.868;4.180;2023-04-21T05:05:05;8.60;99.90
20670;DHT22;10494;50.868;4.180;2023-04-21T05:07:33;8.70;99.90
20670;DHT22;10494;50.868;4.180;2023-04-21T05:09:59;8.60;99.90
20670;DHT22;10494;50.868;4.180;2023-04-21T05:12:24;8.60;99.90
20670;DHT22;10494;50.868;4.180;2023-04-21T05:14:50;8.60;99.90
20670;DHT22;10494;50.868;4.180;2023-04-21T05:17:15;8.80;99.90
20670;DHT22;10494;50.868;4.180;2023-04-21T05:19:41;8.80;99.90
20670;DHT22;10494;50.868;4.180;2023-04-21T05:22:07;8.90;99.90
20670;DHT22;10494;50.868;4.180;2023-04-21T05:24:33;8.90;99.90
20670;DHT22;10494;50.868;4.180;2023-04-21T05:26:58;8.90;99.90
20670;DHT22;10494;50.868;4.180;2023-04-21T05:29:25;9.00;99.90
20670;DHT22;10494;50.868;4.180;2023-04-21T05:31:51;8.90;99.90
20670;DHT22;10494;50.868;4.180;2023-04-21T05:34:16;8.90;99.90
20670;DHT22;10494;50.868;4.180;2023-04-21T05:36:42;8.90;99.90
20670;DHT22;10494;50.868;4.180;2023-04-21T05:39:08;9.00;99.90
20670;DHT22;10494;50.868;4.180;2023-04-21T05:41:34;9.00;99.90
20670;DHT22;10494;50.868;4.180;2023-04-21T05:43:59;9.00;99.90
20670;DHT22;10494;50.868;4.180;2023-04-21T05:46:25;9.20;99.90
20670;DHT22;10494;50.868;4.180;2023-04-21T05:48:51;9.30;99.90
20670;DHT22;10494;50.868;4.180;2023-04-21T05:51:16;9.40;99.90
20670;DHT22;10494;50.868;4.180;2023-04-21T05:53:43;9.60;99.90
20670;DHT22;10494;50.868;4.180;2023-04-21T05:56:09;10.10;99.90
20670;DHT22;10494;50.868;4.180;2023-04-21T05:58:36;10.30;99.90
20670;DHT22;10494;50.868;4.180;2023-04-21T06:01:01;10.70;99.90
20670;DHT22;10494;50.868;4.180;2023-04-21T06:03:30;11.10;99.90
20670;DHT22;10494;50.868;4.180;2023-04-21T06:05:56;11.30;99.90
20670;DHT22;10494;50.868;4.180;2023-04-21T06:08:22;11.70;99.90
20670;DHT22;10494;50.868;4.180;2023-04-21T06:10:48;11.90;99.90
20670;DHT22;10494;50.868;4.180;2023-04-21T06:13:13;11.80;99.90
20670;DHT22;10494;50.868;4.180;2023-04-21T06:15:39;11.80;99.90
20670;DHT22;10494;50.868;4.180;2023-04-21T06:18:05;11.90;99.90
20670;DHT22;10494;50.868;4.180;2023-04-21T06:20:30;11.60;99.90
20670;DHT22;10494;50.868;4.180;2023-04-21T06:22:56;11.50;99.90
20670;DHT22;10494;50.868;4.180;2023-04-21T06:25:22;10.90;99.90
20670;DHT22;10494;50.868;4.180;2023-04-21T06:27:47;10.80;99.90
20670;DHT22;10494;50.868;4.180;2023-04-21T06:30:13;10.90;99.90
20670;DHT22;10494;50.868;4.180;2023-04-21T06:32:39;11.00;99.90
20670;DHT22;10494;50.868;4.180;2023-04-21T06:35:05;11.10;99.90
20670;DHT22;10494;50.868;4.180;2023-04-21T06:37:31;10.90;99.90
20670;DHT22;10494;50.868;4.180;2023-04-21T06:39:56;10.80;99.90
20670;DHT22;10494;50.868;4.180;2023-04-21T06:42:22;10.80;99.90
20670;DHT22;10494;50.868;4.180;2023-04-21T06:44:48;10.80;99.90
20670;DHT22;10494;50.868;4.180;2023-04-21T06:47:13;10.60;99.90
20670;DHT22;10494;50.868;4.180;2023-04-21T06:49:41;10.40;99.90
20670;DHT22;10494;50.868;4.180;2023-04-21T06:52:06;10.30;99.90
20670;DHT22;10494;50.868;4.180;2023-04-21T06:54:32;10.10;99.90
20670;DHT22;10494;50.868;4.180;2023-04-21T06:56:58;10.30;99.90
20670;DHT22;10494;50.868;4.180;2023-04-21T06:59:24;10.20;99.90
20670;DHT22;10494;50.868;4.180;2023-04-21T07:01:50;10.40;99.90
20670;DHT22;10494;50.868;4.180;2023-04-21T07:04:17;10.40;99.90
20670;DHT22;10494;50.868;4.180;2023-04-21T07:06:43;10.30;99.90
20670;DHT22;10494;50.868;4.180;2023-04-21T07:09:09;10.40;99.90
20670;DHT22;10494;50.868;4.180;2023-04-21T07:11:34;10.60;99.90
20670;DHT22;10494;50.868;4.180;2023-04-21T07:14:00;10.60;99.90
20670;DHT22;10494;50.868;4.180;2023-04-21T07:16:27;10.80;99.90
20670;DHT22;10494;50.868;4.180;2023-04-21T07:18:53;11.10;99.90
20670;DHT22;10494;50.868;4.180;2023-04-21T07:21:18;11.40;99.90
20670;DHT22;10494;50.868;4.180;2023-04-21T07:23:44;11.70;99.90
20670;DHT22;10494;50.868;4.180;2023-04-21T07:26:10;11.70;99.90
20670;DHT22;10494;50.868;4.180;2023-04-21T07:28:37;12.20;99.90
20670;DHT22;10494;50.868;4.180;2023-04-21T07:31:03;12.90;99.90
20670;DHT22;10494;50.868;4.180;2023-04-21T07:33:29;14.00;99.90
20670;DHT22;10494;50.868;4.180;2023-04-21T07:35:54;14.20;99.90
20670;DHT22;10494;50.868;4.180;2023-04-21T07:38:20;14.50;99.90
20670;DHT22;10494;50.868;4.180;2023-04-21T07:40:46;13.80;99.90
20670;DHT22;10494;50.868;4.180;2023-04-21T07:43:11;13.80;99.90
20670;DHT22;10494;50.868;4.180;2023-04-21T07:45:37;13.70;99.90
20670;DHT22;10494;50.868;4.180;2023-04-21T07:48:03;13.10;99.90
20670;DHT22;10494;50.868;4.180;2023-04-21T07:50:30;12.50;99.90
20670;DHT22;10494;50.868;4.180;2023-04-21T07:52:56;13.00;99.90
20670;DHT22;10494;50.868;4.180;2023-04-21T07:55:21;14.40;99.90
20670;DHT22;10494;50.868;4.180;2023-04-21T07:57:47;15.40;99.90
20670;DHT22;10494;50.868;4.180;2023-04-21T08:00:13;15.30;99.90
20670;DHT22;10494;50.868;4.180;2023-04-21T08:02:39;15.90;99.90
20670;DHT22;10494;50.868;4.180;2023-04-21T08:05:05;16.30;99.90
20670;DHT22;10494;50.868;4.180;2023-04-21T08:07:31;16.70;99.90
20670;DHT22;10494;50.868;4.180;2023-04-21T08:09:57;17.10;99.90
20670;DHT22;10494;50.868;4.180;2023-04-21T08:12:22;17.40;99.90
20670;DHT22;10494;50.868;4.180;2023-04-21T08:14:48;17.10;99.90
20670;DHT22;10494;50.868;4.180;2023-04-21T08:17:14;17.00;99.90
20670;DHT22;10494;50.868;4.180;2023-04-21T08:19:40;17.40;99.90
20670;DHT22;10494;50.868;4.180;2023-04-21T08:22:05;18.10;99.90
20670;DHT22;10494;50.868;4.180;2023-04-21T08:24:31;18.60;99.90
20670;DHT22;10494;50.868;4.180;2023-04-21T08:26:57;19.20;99.90
20670;DHT22;10494;50.868;4.180;2023-04-21T08:29:22;18.00;99.90
20670;DHT22;10494;50.868;4.180;2023-04-21T08:31:48;17.90;99.90
20670;DHT22;10494;50.868;4.180;2023-04-21T08:34:14;17.20;99.90
20670;DHT22;10494;50.868;4.180;2023-04-21T08:36:39;17.20;99.90
20670;DHT22;10494;50.868;4.180;2023-04-21T08:39:07;16.10;99.90
20670;DHT22;10494;50.868;4.180;2023-04-21T08:41:32;16.20;99.90
20670;DHT22;10494;50.868;4.180;2023-04-21T08:43:58;16.20;99.90
20670;DHT22;10494;50.868;4.180;2023-04-21T08:46:24;17.30;99.90
20670;DHT22;10494;50.868;4.180;2023-04-21T08:48:51;18.10;99.90
20670;DHT22;10494;50.868;4.180;2023-04-21T08:51:21;19.40;99.90
20670;DHT22;10494;50.868;4.180;2023-04-21T08:53:48;20.60;98.90
20670;DHT22;10494;50.868;4.180;2023-04-21T08:56:13;21.00;94.80
20670;DHT22;10494;50.868;4.180;2023-04-21T08:58:39;20.80;93.60
20670;DHT22;10494;50.868;4.180;2023-04-21T09:01:06;20.40;93.40
20670;DHT22;10494;50.868;4.180;2023-04-21T09:03:31;20.60;94.10
20670;DHT22;10494;50.868;4.180;2023-04-21T09:06:05;21.60;89.30
20670;DHT22;10494;50.868;4.180;2023-04-21T09:08:32;21.60;86.70
20670;DHT22;10494;50.868;4.180;2023-04-21T09:10:59;22.40;81.90
20670;DHT22;10494;50.868;4.180;2023-04-21T09:13:35;23.50;78.70
20670;DHT22;10494;50.868;4.180;2023-04-21T09:16:04;23.80;71.40
20670;DHT22;10494;50.868;4.180;2023-04-21T09:18:30;22.70;70.90
20670;DHT22;10494;50.868;4.180;2023-04-21T09:21:11;21.30;71.70
20670;DHT22;10494;50.868;4.180;2023-04-21T09:23:47;21.70;76.40
20670;DHT22;10494;50.868;4.180;2023-04-21T09:26:13;22.30;71.60
20670;DHT22;10494;50.868;4.180;2023-04-21T09:28:41;21.70;73.30
20670;DHT22;10494;50.868;4.180;2023-04-21T09:31:15;21.80;76.20
20670;DHT22;10494;50.868;4.180;2023-04-21T09:33:49;21.60;76.30
20670;DHT22;10494;50.868;4.180;2023-04-21T09:36:23;21.10;78.70
20670;DHT22;10494;50.868;4.180;2023-04-21T09:38:57;21.30;78.30
20670;DHT22;10494;50.868;4.180;2023-04-21T09:41:23;21.70;76.90
20670;DHT22;10494;50.868;4.180;2023-04-21T09:43:50;22.10;74.40
20670;DHT22;10494;50.868;4.180;2023-04-21T09:46:16;21.40;75.40
20670;DHT22;10494;50.868;4.180;2023-04-21T09:48:44;20.60;73.90
20670;DHT22;10494;50.868;4.180;2023-04-21T09:51:14;20.30;75.50
20670;DHT22;10494;50.868;4.180;2023-04-21T09:53:40;20.00;79.20
20670;DHT22;10494;50.868;4.180;2023-04-21T09:56:14;20.60;75.70
20670;DHT22;10494;50.868;4.180;2023-04-21T09:58:46;20.50;78.30
20670;DHT22;10494;50.868;4.180;2023-04-21T10:01:13;21.10;75.40
20670;DHT22;10494;50.868;4.180;2023-04-21T10:03:40;21.60;74.10
20670;DHT22;10494;50.868;4.180;2023-04-21T10:06:06;21.70;72.70
20670;DHT22;10494;50.868;4.180;2023-04-21T10:08:33;21.30;73.60
20670;DHT22;10494;50.868;4.180;2023-04-21T10:11:01;21.50;76.70
20670;DHT22;10494;50.868;4.180;2023-04-21T10:13:28;20.30;79.60
20670;DHT22;10494;50.868;4.180;2023-04-21T10:16:05;20.30;79.40
20670;DHT22;10494;50.868;4.180;2023-04-21T10:18:35;20.40;79.00
20670;DHT22;10494;50.868;4.180;2023-04-21T10:21:02;20.60;76.00
20670;DHT22;10494;50.868;4.180;2023-04-21T10:23:45;20.40;74.90
20670;DHT22;10494;50.868;4.180;2023-04-21T10:26:26;20.30;75.10
20670;DHT22;10494;50.868;4.180;2023-04-21T10:28:58;19.90;75.90
20670;DHT22;10494;50.868;4.180;2023-04-21T10:31:49;19.80;77.40
20670;DHT22;10494;50.868;4.180;2023-04-21T10:34:35;19.40;80.40
20670;DHT22;10494;50.868;4.180;2023-04-21T10:44:42;19.60;79.00
20670;DHT22;10494;50.868;4.180;2023-04-21T10:47:08;19.50;78.40
20670;DHT22;10494;50.868;4.180;2023-04-21T10:49:38;18.70;83.00
20670;DHT22;10494;50.868;4.180;2023-04-21T10:52:08;19.00;83.30
20670;DHT22;10494;50.868;4.180;2023-04-21T10:57:11;19.00;82.40
20670;DHT22;10494;50.868;4.180;2023-04-21T10:59:38;19.50;81.70
20670;DHT22;10494;50.868;4.180;2023-04-21T11:02:10;19.40;77.50
20670;DHT22;10494;50.868;4.180;2023-04-21T11:04:36;19.20;79.30
20670;DHT22;10494;50.868;4.180;2023-04-21T11:07:10;18.70;78.90
20670;DHT22;10494;50.868;4.180;2023-04-21T11:12:16;18.30;80.00
20670;DHT22;10494;50.868;4.180;2023-04-21T11:14:44;18.20;81.40
20670;DHT22;10494;50.868;4.180;2023-04-21T11:17:15;18.50;81.70
20670;DHT22;10494;50.868;4.180;2023-04-21T11:19:44;18.60;82.10
20670;DHT22;10494;50.868;4.180;2023-04-21T11:22:10;18.50;79.60
20670;DHT22;10494;50.868;4.180;2023-04-21T11:24:36;18.40;82.50
20670;DHT22;10494;50.868;4.180;2023-04-21T11:27:01;18.30;80.90
20670;DHT22;10494;50.868;4.180;2023-04-21T11:29:28;17.70;83.00
20670;DHT22;10494;50.868;4.180;2023-04-21T11:31:54;17.70;83.90
20670;DHT22;10494;50.868;4.180;2023-04-21T11:34:21;17.60;83.80
20670;DHT22;10494;50.868;4.180;2023-04-21T11:36:47;17.50;86.00
20670;DHT22;10494;50.868;4.180;2023-04-21T11:39:15;17.40;82.70
20670;DHT22;10494;50.868;4.180;2023-04-21T11:41:45;17.40;83.90
20670;DHT22;10494;50.868;4.180;2023-04-21T11:44:13;17.50;85.90
20670;DHT22;10494;50.868;4.180;2023-04-21T11:46:45;17.70;85.70
20670;DHT22;10494;50.868;4.180;2023-04-21T11:49:13;17.90;87.10
20670;DHT22;10494;50.868;4.180;2023-04-21T11:51:40;17.90;80.40
20670;DHT22;10494;50.868;4.180;2023-04-21T11:54:08;17.70;83.30
20670;DHT22;10494;50.868;4.180;2023-04-21T11:56:38;17.80;85.90
20670;DHT22;10494;50.868;4.180;2023-04-21T11:59:12;17.60;84.20
20670;DHT22;10494;50.868;4.180;2023-04-21T12:01:49;17.80;83.00
20670;DHT22;10494;50.868;4.180;2023-04-21T12:04:18;18.00;84.80
20670;DHT22;10494;50.868;4.180;2023-04-21T12:06:57;17.70;81.50
20670;DHT22;10494;50.868;4.180;2023-04-21T12:09:24;17.60;82.10
20670;DHT22;10494;50.868;4.180;2023-04-21T12:11:55;17.70;77.70
20670;DHT22;10494;50.868;4.180;2023-04-21T12:14:23;17.80;80.30
20670;DHT22;10494;50.868;4.180;2023-04-21T12:16:52;18.00;74.40
20670;DHT22;10494;50.868;4.180;2023-04-21T12:19:37;17.90;77.50
20670;DHT22;10494;50.868;4.180;2023-04-21T12:22:11;18.00;80.30
20670;DHT22;10494;50.868;4.180;2023-04-21T12:24:37;18.20;80.90
20670;DHT22;10494;50.868;4.180;2023-04-21T12:27:04;18.20;79.00
20670;DHT22;10494;50.868;4.180;2023-04-21T12:29:30;18.30;78.90
20670;DHT22;10494;50.868;4.180;2023-04-21T12:31:56;18.30;78.90
20670;DHT22;10494;50.868;4.180;2023-04-21T12:34:22;18.60;78.40
20670;DHT22;10494;50.868;4.180;2023-04-21T12:36:48;18.60;75.30
20670;DHT22;10494;50.868;4.180;2023-04-21T12:39:13;18.70;74.70
20670;DHT22;10494;50.868;4.180;2023-04-21T12:41:41;17.90;74.30
20670;DHT22;10494;50.868;4.180;2023-04-21T12:44:07;17.80;77.60
20670;DHT22;10494;50.868;4.180;2023-04-21T12:46:33;17.70;76.10
20670;DHT22;10494;50.868;4.180;2023-04-21T12:48:59;17.70;74.30
20670;DHT22;10494;50.868;4.180;2023-04-21T12:51:24;17.80;76.00
20670;DHT22;10494;50.868;4.180;2023-04-21T12:53:50;17.60;73.70
20670;DHT22;10494;50.868;4.180;2023-04-21T12:56:17;17.90;74.90
20670;DHT22;10494;50.868;4.180;2023-04-21T12:58:42;18.10;71.30
20670;DHT22;10494;50.868;4.180;2023-04-21T13:01:08;18.20;72.00
20670;DHT22;10494;50.868;4.180;2023-04-21T13:03:34;18.40;72.00
20670;DHT22;10494;50.868;4.180;2023-04-21T13:05:59;18.50;72.10
20670;DHT22;10494;50.868;4.180;2023-04-21T13:08:25;18.60;70.80
20670;DHT22;10494;50.868;4.180;2023-04-21T13:10:51;18.80;70.20
20670;DHT22;10494;50.868;4.180;2023-04-21T13:13:16;19.00;69.80
20670;DHT22;10494;50.868;4.180;2023-04-21T13:15:42;19.00;66.00
20670;DHT22;10494;50.868;4.180;2023-04-21T13:18:07;19.00;66.60
20670;DHT22;10494;50.868;4.180;2023-04-21T13:20:33;19.00;63.70
20670;DHT22;10494;50.868;4.180;2023-04-21T13:22:59;18.70;64.50
20670;DHT22;10494;50.868;4.180;2023-04-21T13:25:25;18.80;64.50
20670;DHT22;10494;50.868;4.180;2023-04-21T13:27:51;18.90;65.70
20670;DHT22;10494;50.868;4.180;2023-04-21T13:30:17;19.00;64.70
20670;DHT22;10494;50.868;4.180;2023-04-21T13:32:42;19.30;66.10
20670;DHT22;10494;50.868;4.180;2023-04-21T13:35:08;19.20;67.80
20670;DHT22;10494;50.868;4.180;2023-04-21T13:37:39;19.30;65.40
20670;DHT22;10494;50.868;4.180;2023-04-21T13:40:06;19.30;66.60
20670;DHT22;10494;50.868;4.180;2023-04-21T13:42:33;19.50;63.50
20670;DHT22;10494;50.868;4.180;2023-04-21T13:44:59;19.60;64.40
20670;DHT22;10494;50.868;4.180;2023-04-21T13:47:27;19.80;61.20
20670;DHT22;10494;50.868;4.180;2023-04-21T13:49:52;19.90;61.50
20670;DHT22;10494;50.868;4.180;2023-04-21T13:52:18;19.30;65.80
20670;DHT22;10494;50.868;4.180;2023-04-21T13:54:44;18.90;69.10
20670;DHT22;10494;50.868;4.180;2023-04-21T13:57:09;18.40;70.80
20670;DHT22;10494;50.868;4.180;2023-04-21T13:59:35;17.90;73.60
20670;DHT22;10494;50.868;4.180;2023-04-21T14:02:00;17.50;74.70
20670;DHT22;10494;50.868;4.180;2023-04-21T14:04:26;17.70;78.30
20670;DHT22;10494;50.868;4.180;2023-04-21T14:06:52;18.30;77.00
20670;DHT22;10494;50.868;4.180;2023-04-21T14:09:18;18.80;74.80
20670;DHT22;10494;50.868;4.180;2023-04-21T14:11:43;19.30;67.60
20670;DHT22;10494;50.868;4.180;2023-04-21T14:14:09;19.10;68.80
20670;DHT22;10494;50.868;4.180;2023-04-21T14:16:34;19.30;70.20
20670;DHT22;10494;50.868;4.180;2023-04-21T14:19:00;19.30;68.10
20670;DHT22;10494;50.868;4.180;2023-04-21T14:21:26;19.50;67.60
20670;DHT22;10494;50.868;4.180;2023-04-21T14:23:51;19.60;66.80
20670;DHT22;10494;50.868;4.180;2023-04-21T14:26:17;19.70;66.60
20670;DHT22;10494;50.868;4.180;2023-04-21T14:28:42;19.40;66.80
20670;DHT22;10494;50.868;4.180;2023-04-21T14:31:09;19.30;65.20
20670;DHT22;10494;50.868;4.180;2023-04-21T14:33:34;19.00;65.80
20670;DHT22;10494;50.868;4.180;2023-04-21T14:36:00;18.70;65.70
20670;DHT22;10494;50.868;4.180;2023-04-21T14:38:26;18.20;66.60
20670;DHT22;10494;50.868;4.180;2023-04-21T14:40:53;18.30;68.10
20670;DHT22;10494;50.868;4.180;2023-04-21T14:43:20;18.00;66.80
20670;DHT22;10494;50.868;4.180;2023-04-21T14:45:46;18.10;68.40
20670;DHT22;10494;50.868;4.180;2023-04-21T14:48:12;18.30;67.20
20670;DHT22;10494;50.868;4.180;2023-04-21T14:50:39;18.40;65.20
20670;DHT22;10494;50.868;4.180;2023-04-21T14:53:05;18.40;64.80
20670;DHT22;10494;50.868;4.180;2023-04-21T14:55:31;18.50;66.10
20670;DHT22;10494;50.868;4.180;2023-04-21T14:57:57;18.70;66.90
20670;DHT22;10494;50.868;4.180;2023-04-21T15:00:23;18.60;68.00
20670;DHT22;10494;50.868;4.180;2023-04-21T15:02:50;18.30;69.70
20670;DHT22;10494;50.868;4.180;2023-04-21T15:05:16;18.50;67.90
20670;DHT22;10494;50.868;4.180;2023-04-21T15:07:43;18.70;67.60
20670;DHT22;10494;50.868;4.180;2023-04-21T15:10:09;18.90;66.70
20670;DHT22;10494;50.868;4.180;2023-04-21T15:12:35;19.10;63.60
20670;DHT22;10494;50.868;4.180;2023-04-21T15:15:02;19.20;64.90
20670;DHT22;10494;50.868;4.180;2023-04-21T15:17:28;19.20;64.60
20670;DHT22;10494;50.868;4.180;2023-04-21T15:19:54;19.10;65.90
20670;DHT22;10494;50.868;4.180;2023-04-21T15:22:19;18.80;66.90
20670;DHT22;10494;50.868;4.180;2023-04-21T15:24:45;18.70;67.80
20670;DHT22;10494;50.868;4.180;2023-04-21T15:27:11;18.70;68.00
20670;DHT22;10494;50.868;4.180;2023-04-21T15:29:36;18.70;67.30
20670;DHT22;10494;50.868;4.180;2023-04-21T15:32:02;18.70;66.60
20670;DHT22;10494;50.868;4.180;2023-04-21T15:34:28;19.00;68.10
20670;DHT22;10494;50.868;4.180;2023-04-21T15:36:54;19.00;68.60
20670;DHT22;10494;50.868;4.180;2023-04-21T15:39:19;19.20;67.60
20670;DHT22;10494;50.868;4.180;2023-04-21T15:41:46;19.00;68.40
20670;DHT22;10494;50.868;4.180;2023-04-21T15:44:11;19.00;69.10
20670;DHT22;10494;50.868;4.180;2023-04-21T15:46:37;19.00;69.00
20670;DHT22;10494;50.868;4.180;2023-04-21T15:49:03;19.00;70.90